Grundy, VA (24614)

12:22 PM EDT on August 29, 2016 (GMT -0400)
KM4HDM - Richlands, Virginia | | Change Station

Elev 1972 ft 37.09 °N, 81.83 °W | Updated 9 minutes ago

Clear
Clear
98.1 °F
Feels Like 102 °F
N
1.7
Wind Variable Wind from West

Today
High -- | Low -- °F
--% Chance of Precip.
Yesterday
High -- | Low -- °F
Precip. -- in
Pressure 30.30 in
Visibility 10.0 miles
Clouds Clear
Heat Index 102 °F
Dew Point 66 °F
Humidity 36%
Rainfall 0.00 in
Snow Depth Not available.
6:56 AM 8:00 PM
Waning Crescent, 8% visible
METAR KJFZ 291615Z AUTO 07003KT 10SM CLR 27/19 A3030 RMK AO2 T02690191
Pressure 30.30 in
Visibility 10.0 miles
Clouds Clear
Heat Index 102 °F
Dew Point 66 °F
Humidity 36%
Rainfall 0.00 in
Snow Depth Not available.
6:56 AM 8:00 PM
Waning Crescent, 8% visible
METAR KJFZ 291615Z AUTO 07003KT 10SM CLR 27/19 A3030 RMK AO2 T02690191

10-Day Weather Forecast

Almanac

Astronomy

Aug. 29, 2016 Rise Set
Actual Time
Civil Twilight
Nautical Twilight
Astronomical Twilight
Moon
Length of Visible Light
Length of Day
Tomorrow will be .
, % of the Moon is Illuminated

Today's Extremes

State Highs State Lows

Community

WunderPhotos

Upload Photos

1,935,867 photos uploaded!

WunderBlog® & News

Nearby

Air Quality

  Air Quality AQ Index Pollutant
Not available.

Snow Depth

Station Depth Elevation

Earthquake Activity

City Distance Mag. Time & Date
Minimum magnitude displayed is 2.5.

Coastal Water Temperatures

Place Temperature

Stations

Nearby Weather Stations

Station Location Temp. Windchill Dew Point Humidity Wind Precip. Elev Updated Type
                   

Watches & Warnings

There are currently no watches in effect.